Time;durP1;ratioP1;P1;durP2;ratioP2;P2;SDS_P1;SDS_P2;PMS_P1;PMS_P2;Temp;Humidity;BMP_temperature;BMP_pressure;BME280_temperature;BME280_humidity;BME280_pressure;Samples;Min_cycle;Max_cycle;Signal;HPM_P1;HPM_P2
2022/08/03 00:00:04;;;;;;;3.42;1.80;;;;;;;26.48;39.99;99387.63;5011391;28;20521;-77
2022/08/03 00:02:29;;;;;;;3.17;1.88;;;;;;;26.45;39.97;99391.72;5011360;28;20034;-77
2022/08/03 00:04:55;;;;;;;3.10;2.00;;;;;;;26.36;40.00;99392.63;5011670;28;20484;-77
2022/08/03 00:07:20;;;;;;;3.75;1.90;;;;;;;26.23;40.12;99364.28;5011442;28;20028;-77
2022/08/03 00:09:46;;;;;;;4.70;1.90;;;;;;;26.40;40.29;99391.75;5011283;28;20026;-77
2022/08/03 00:12:11;;;;;;;3.97;2.28;;;;;;;26.39;40.19;99381.22;5011370;28;20468;-77
2022/08/03 00:14:36;;;;;;;3.03;2.38;;;;;;;26.09;40.12;99347.91;5011492;28;20029;-77
2022/08/03 00:17:02;;;;;;;2.13;1.80;;;;;;;26.29;39.99;99344.19;5010006;28;20141;-77
2022/08/03 00:19:28;;;;;;;3.67;2.03;;;;;;;26.56;39.88;99392.41;5011275;28;20034;-77
2022/08/03 00:21:53;;;;;;;2.30;2.10;;;;;;;26.47;40.01;99367.06;5011397;28;20018;-77
2022/08/03 00:24:19;;;;;;;2.70;2.17;;;;;;;26.24;39.60;99334.22;5011187;28;20050;-77
2022/08/03 00:26:44;;;;;;;2.60;2.30;;;;;;;26.25;40.02;99316.09;5011147;28;20499;-77
2022/08/03 00:29:10;;;;;;;2.85;2.20;;;;;;;26.28;39.73;99323.63;5011149;28;20029;-77
2022/08/03 00:31:35;;;;;;;2.95;1.88;;;;;;;26.62;39.57;99376.91;5011300;28;20018;-77
2022/08/03 00:34:01;;;;;;;2.38;2.17;;;;;;;26.67;39.79;99376.88;5011222;28;20568;-77
2022/08/03 00:36:27;;;;;;;3.45;2.10;;;;;;;26.38;39.85;99331.69;5011147;28;20418;-77
2022/08/03 00:38:52;;;;;;;2.60;2.35;;;;;;;26.21;39.96;99312.34;5011305;28;20058;-77
2022/08/03 00:41:18;;;;;;;2.33;1.90;;;;;;;26.31;40.16;99335.78;5011094;28;20057;-77
2022/08/03 00:43:43;;;;;;;2.25;2.03;;;;;;;26.48;39.97;99379.50;5026317;28;20080;-77
2022/08/03 00:46:09;;;;;;;3.60;2.20;;;;;;;26.34;40.28;99368.53;5011051;28;20395;-77
2022/08/03 00:48:34;;;;;;;2.40;2.20;;;;;;;26.25;40.55;99359.41;5009872;28;20406;-77
2022/08/03 00:51:00;;;;;;;4.15;2.40;;;;;;;26.13;40.30;99346.25;5011100;28;20113;-77
2022/08/03 00:53:26;;;;;;;3.65;2.42;;;;;;;26.34;40.20;99387.50;5011087;28;20022;-77
2022/08/03 00:55:52;;;;;;;2.45;2.15;;;;;;;26.28;40.19;99386.69;5012345;28;20033;-77
2022/08/03 00:58:17;;;;;;;2.97;2.13;;;;;;;26.17;40.66;99370.84;5014712;28;20025;-77
2022/08/03 01:00:42;;;;;;;2.35;2.08;;;;;;;25.80;40.57;99317.28;5014541;28;20018;-77
2022/08/03 01:03:10;;;;;;;3.22;2.22;;;;;;;26.16;40.47;99388.16;5014397;28;20129;-77
2022/08/03 01:05:45;;;;;;;2.25;2.05;;;;;;;26.15;40.87;99383.84;5014345;28;20495;-77
2022/08/03 01:08:38;;;;;;;3.10;2.20;;;;;;;26.20;40.95;99394.63;5014057;28;20101;-77
2022/08/03 01:11:18;;;;;;;2.22;2.00;;;;;;;26.19;40.78;99393.81;5012924;28;20057;-77
2022/08/03 01:13:44;;;;;;;3.58;2.22;;;;;;;26.15;40.74;99386.56;5014367;28;20466;-77
2022/08/03 01:16:28;;;;;;;2.42;2.22;;;;;;;26.10;41.14;99389.31;5014096;28;20049;-78
2022/08/03 01:19:19;;;;;;;2.78;2.10;;;;;;;26.06;40.63;99389.06;5012966;28;20025;-77
2022/08/03 01:21:48;;;;;;;2.08;1.92;;;;;;;26.04;40.90;99391.25;4990374;28;20025;-77
2022/08/03 01:24:48;;;;;;;2.40;2.20;;;;;;;25.86;40.90;99368.38;5012731;28;20037;-77
2022/08/03 01:27:18;;;;;;;4.00;2.50;;;;;;;25.93;41.06;99393.19;5013989;28;20076;-77
2022/08/03 01:30:05;;;;;;;4.05;2.00;;;;;;;25.89;41.56;99383.22;5013781;28;20080;-77
2022/08/03 01:32:39;;;;;;;4.30;2.10;;;;;;;25.98;41.22;99381.53;5013887;28;20495;-77
2022/08/03 01:35:11;;;;;;;3.67;2.40;;;;;;;25.95;41.32;99398.31;5012449;28;20029;-77
2022/08/03 01:37:46;;;;;;;3.80;2.20;;;;;;;25.90;41.56;99401.88;5013799;28;20414;-77
2022/08/03 01:40:14;;;;;;;3.45;2.13;;;;;;;25.42;41.46;99329.72;5013853;28;20029;-77
2022/08/03 01:42:41;;;;;;;2.45;2.20;;;;;;;25.79;41.62;99396.81;5012351;28;20046;-77
2022/08/03 01:45:10;;;;;;;2.80;2.45;;;;;;;25.26;41.75;99328.97;5013510;28;20034;-77
2022/08/03 01:47:37;;;;;;;3.17;2.28;;;;;;;25.64;42.12;99401.22;5013650;28;20017;-77
2022/08/03 01:50:04;;;;;;;2.40;2.17;;;;;;;25.22;41.83;99347.66;5013402;28;20057;-77
2022/08/03 01:52:31;;;;;;;3.47;2.33;;;;;;;25.43;41.97;99383.50;5013437;28;20022;-77
2022/08/03 01:54:57;;;;;;;2.97;2.05;;;;;;;25.53;42.31;99393.44;5012204;28;20066;-77
2022/08/03 01:57:27;;;;;;;2.35;2.15;;;;;;;25.43;41.98;99371.88;5028589;28;20426;-77
2022/08/03 01:59:56;;;;;;;4.70;2.80;;;;;;;25.52;42.19;99397.25;5013364;28;20053;-77
2022/08/03 02:02:23;;;;;;;2.17;1.98;;;;;;;25.32;41.92;99366.53;5013918;28;20022;-77
2022/08/03 02:04:51;;;;;;;3.45;2.35;;;;;;;25.53;42.00;99398.84;5013243;28;20057;-77
2022/08/03 02:07:18;;;;;;;2.78;2.50;;;;;;;25.61;42.29;99403.66;5012297;28;20029;-77
2022/08/03 02:09:48;;;;;;;2.85;2.25;;;;;;;25.39;42.04;99379.75;5013131;28;20037;-77
2022/08/03 02:12:17;;;;;;;3.78;2.10;;;;;;;25.57;42.49;99410.72;5013272;28;20404;-77
2022/08/03 02:14:44;;;;;;;4.50;2.60;;;;;;;25.28;42.47;99384.41;5013177;28;20073;-77
2022/08/03 02:17:12;;;;;;;2.90;2.47;;;;;;;25.00;42.52;99341.81;5012960;28;20510;-77
2022/08/03 02:19:39;;;;;;;4.45;2.38;;;;;;;25.07;42.48;99363.94;5012923;28;20029;-77
2022/08/03 02:22:09;;;;;;;3.25;2.05;;;;;;;25.26;42.76;99407.34;5013051;28;20021;-77
2022/08/03 02:24:34;;;;;;;3.60;2.42;;;;;;;24.78;42.62;99344.84;5012939;28;20026;-77
2022/08/03 02:27:02;;;;;;;3.97;2.45;;;;;;;25.19;42.83;99407.66;5012858;28;20021;-77
2022/08/03 02:29:33;;;;;;;4.18;2.55;;;;;;;25.17;43.14;99399.00;5028016;28;20051;-77
2022/08/03 02:32:00;;;;;;;2.50;2.30;;;;;;;25.21;42.91;99405.47;5012665;28;20025;-77
2022/08/03 02:34:28;;;;;;;3.83;2.60;;;;;;;24.93;43.14;99377.19;5012756;28;20021;-77
2022/08/03 02:36:58;;;;;;;3.15;2.40;;;;;;;25.17;42.90;99404.41;5012787;28;20085;-78
2022/08/03 02:39:27;;;;;;;3.78;2.50;;;;;;;25.00;43.08;99399.34;5012641;28;20032;-78
2022/08/03 02:42:01;;;;;;;4.45;2.30;;;;;;;25.03;43.07;99406.09;5012677;28;20029;-77
2022/08/03 02:44:28;;;;;;;3.97;2.47;;;;;;;24.47;43.27;99330.63;5012584;28;20045;-77
2022/08/03 02:47:02;;;;;;;2.85;2.60;;;;;;;24.45;43.68;99340.88;5012642;28;20525;-77
2022/08/03 02:49:30;;;;;;;3.55;2.70;;;;;;;24.85;43.71;99417.47;5012349;28;20057;-77
2022/08/03 02:51:57;;;;;;;9.23;3.28;;;;;;;24.77;43.58;99407.25;5012380;28;20026;-77
2022/08/03 02:54:25;;;;;;;3.15;2.47;;;;;;;24.66;43.80;99395.66;5012392;28;20084;-77
2022/08/03 02:56:53;;;;;;;3.22;2.50;;;;;;;24.49;43.95;99365.44;5012431;28;20030;-77
2022/08/03 02:59:19;;;;;;;2.60;2.40;;;;;;;24.45;44.00;99370.56;5012609;28;20037;-77
2022/08/03 03:01:46;;;;;;;3.85;2.60;;;;;;;24.62;44.26;99402.69;5011210;28;20038;-77
2022/08/03 03:04:12;;;;;;;3.22;2.30;;;;;;;24.35;43.96;99360.59;5012314;28;20100;-77
2022/08/03 03:06:38;;;;;;;3.47;2.45;;;;;;;24.37;44.09;99379.22;5011946;28;20141;-77
2022/08/03 03:09:04;;;;;;;3.15;2.60;;;;;;;24.34;44.01;99369.78;5011899;28;20022;-77
2022/08/03 03:11:30;;;;;;;4.07;3.10;;;;;;;24.44;44.03;99395.94;5010697;28;20033;-77
2022/08/03 03:13:57;;;;;;;4.45;2.50;;;;;;;24.45;43.99;99394.88;5012006;28;20025;-77
2022/08/03 03:16:25;;;;;;;4.35;2.53;;;;;;;24.17;44.26;99363.03;5011770;28;20046;-77
2022/08/03 03:18:53;;;;;;;4.65;2.70;;;;;;;24.42;44.05;99408.91;5010851;28;20033;-77
2022/08/03 03:21:20;;;;;;;3.75;2.50;;;;;;;24.51;44.45;99428.84;5011950;28;20022;-77
2022/08/03 03:23:46;;;;;;;3.30;2.70;;;;;;;24.45;44.43;99427.25;5010614;28;20026;-77
2022/08/03 03:26:14;;;;;;;5.47;3.10;;;;;;;24.20;44.19;99405.66;5012103;28;20108;-77
2022/08/03 03:28:40;;;;;;;4.57;2.80;;;;;;;24.43;44.62;99434.81;5011904;28;20033;-77
2022/08/03 03:31:06;;;;;;;7.57;2.88;;;;;;;24.43;44.43;99428.59;5011737;28;20112;-77
2022/08/03 03:33:33;;;;;;;5.43;3.03;;;;;;;24.45;44.57;99435.34;5010376;28;20022;-77
2022/08/03 03:35:59;;;;;;;7.38;3.17;;;;;;;24.47;44.23;99441.28;5011791;28;20022;-77
2022/08/03 03:38:25;;;;;;;5.35;2.75;;;;;;;24.18;44.43;99397.81;5012011;28;20022;-77
2022/08/03 03:40:51;;;;;;;4.60;2.83;;;;;;;24.39;44.14;99417.53;5011716;28;20080;-77
2022/08/03 03:43:17;;;;;;;7.65;3.30;;;;;;;24.19;44.13;99393.25;5011800;28;20030;-77
2022/08/03 03:45:44;;;;;;;5.53;3.33;;;;;;;24.66;44.05;99457.75;5011668;28;20037;-77
2022/08/03 03:48:09;;;;;;;4.90;2.67;;;;;;;24.30;44.29;99400.28;5011725;28;20456;-77
2022/08/03 03:50:39;;;;;;;3.95;2.97;;;;;;;24.64;44.17;99455.31;5011574;28;20030;-77
2022/08/03 03:53:08;;;;;;;5.63;2.95;;;;;;;24.48;44.18;99442.91;5010251;28;20044;-77
2022/08/03 03:55:34;;;;;;;4.40;2.95;;;;;;;24.55;44.14;99446.16;5011646;28;20072;-77
2022/08/03 03:57:59;;;;;;;5.75;2.97;;;;;;;24.57;44.03;99443.19;5011752;28;20018;-77
2022/08/03 04:00:25;;;;;;;7.03;3.55;;;;;;;24.77;43.98;99458.53;5011560;28;20018;-77
2022/08/03 04:02:50;;;;;;;5.93;3.30;;;;;;;24.82;43.86;99467.44;5011555;28;20018;-77
2022/08/03 04:11:04;;;;;;;3.47;3.15;;;;;;;24.94;43.95;99464.44;5011163;28;20465;-77
2022/08/03 04:13:47;;;;;;;8.43;3.63;;;;;;;24.96;43.95;99463.09;5011252;28;20414;-77
2022/08/03 04:16:16;;;;;;;5.68;3.33;;;;;;;24.62;43.67;99402.69;5011341;28;20022;-77
2022/08/03 04:18:47;;;;;;;5.82;3.13;;;;;;;25.07;43.65;99473.91;5026610;28;20080;-77
2022/08/03 04:21:16;;;;;;;6.10;3.20;;;;;;;24.66;44.05;99403.75;5011292;28;20021;-77
2022/08/03 04:23:46;;;;;;;7.90;4.05;;;;;;;24.74;43.73;99405.91;5011426;28;20473;-77
2022/08/03 04:26:16;;;;;;;7.45;3.67;;;;;;;24.87;44.10;99437.72;5026349;28;20462;-77
2022/08/03 04:28:44;;;;;;;6.90;3.53;;;;;;;25.09;44.23;99466.31;5011247;28;20092;-77
2022/08/03 04:31:12;;;;;;;7.00;3.53;;;;;;;24.92;43.98;99440.41;5013002;28;20076;-77
2022/08/03 04:33:40;;;;;;;5.93;3.80;;;;;;;25.19;44.09;99475.22;5015235;28;20140;-77
2022/08/03 04:36:07;;;;;;;5.63;3.60;;;;;;;25.27;43.92;99477.38;5013432;28;20441;-77
2022/08/03 04:38:39;;;;;;;4.85;3.70;;;;;;;24.92;44.00;99416.09;5014679;28;20107;-77
2022/08/03 04:41:06;;;;;;;4.00;3.60;;;;;;;25.38;43.94;99496.25;5013359;28;20101;-77
2022/08/03 04:43:33;;;;;;;6.05;3.70;;;;;;;25.21;44.16;99454.13;5014601;28;20084;-77
2022/08/03 04:46:00;;;;;;;5.80;3.85;;;;;;;25.25;44.12;99457.88;5014749;28;20053;-77
2022/08/03 04:48:26;;;;;;;4.95;3.58;;;;;;;25.41;44.17;99469.47;5014916;28;20034;-77
2022/08/03 04:50:52;;;;;;;4.50;4.07;;;;;;;25.57;44.03;99484.53;5014519;28;20337;-77
2022/08/03 04:53:18;;;;;;;10.07;4.00;;;;;;;25.60;44.39;99480.47;5014601;28;20072;-77
2022/08/03 04:55:43;;;;;;;4.40;3.90;;;;;;;25.34;44.16;99436.53;5014553;28;20025;-77
2022/08/03 04:58:09;;;;;;;9.80;4.75;;;;;;;25.70;44.46;99491.25;5014425;28;20026;-77
2022/08/03 05:00:34;;;;;;;8.68;4.72;;;;;;;25.77;44.23;99494.47;5014585;28;20006;-77
2022/08/03 05:03:00;;;;;;;7.10;4.28;;;;;;;25.82;44.39;99486.31;5014469;28;20041;-77
2022/08/03 05:05:25;;;;;;;8.15;4.38;;;;;;;25.77;44.89;99466.63;5014280;28;20022;-77
2022/08/03 05:07:51;;;;;;;11.02;4.43;;;;;;;25.60;44.70;99435.31;5012861;28;20056;-77
2022/08/03 05:10:17;;;;;;;6.28;5.07;;;;;;;25.80;44.44;99460.66;5014116;28;20465;-77
2022/08/03 05:12:43;;;;;;;9.60;5.32;;;;;;;25.67;44.47;99423.41;5014150;28;20037;-77
2022/08/03 05:15:09;;;;;;;10.27;5.45;;;;;;;25.85;44.32;99453.31;5013881;28;20030;-77
2022/08/03 05:17:35;;;;;;;13.77;5.32;;;;;;;26.17;44.54;99498.84;5013777;28;20184;-77
2022/08/03 05:20:03;;;;;;;9.20;5.00;;;;;;;26.06;44.30;99474.84;5013866;28;20017;-77
2022/08/03 05:22:28;;;;;;;8.73;5.25;;;;;;;26.25;44.36;99489.31;5012627;28;20415;-77
2022/08/03 05:24:53;;;;;;;12.75;5.13;;;;;;;26.29;44.40;99482.25;5013936;28;20026;-77
2022/08/03 05:27:19;;;;;;;9.20;4.95;;;;;;;26.55;44.11;99509.94;5013785;28;20036;-77
2022/08/03 05:29:45;;;;;;;9.45;4.90;;;;;;;26.57;44.15;99510.47;5013814;28;20080;-77
2022/08/03 05:32:11;;;;;;;8.40;5.10;;;;;;;26.68;43.95;99505.78;5013695;28;20387;-77
2022/08/03 05:34:36;;;;;;;10.52;5.90;;;;;;;26.54;43.69;99479.34;5013905;28;20079;-77
2022/08/03 05:37:02;;;;;;;9.77;5.20;;;;;;;26.81;43.77;99521.41;5012568;28;20026;-77
2022/08/03 05:39:27;;;;;;;11.02;5.88;;;;;;;26.54;43.73;99476.66;5012552;28;20022;-77
2022/08/03 05:41:53;;;;;;;10.25;5.78;;;;;;;26.54;43.89;99473.94;5012711;28;20088;-77
2022/08/03 05:44:18;;;;;;;13.23;6.30;;;;;;;26.88;43.81;99525.38;5013344;28;20547;-77
2022/08/03 05:46:43;;;;;;;12.93;5.97;;;;;;;26.73;43.89;99476.75;5011082;28;20076;-77
2022/08/03 05:49:09;;;;;;;13.45;6.18;;;;;;;27.00;43.92;99524.22;5013214;28;20018;-77
2022/08/03 05:51:35;;;;;;;9.48;5.80;;;;;;;26.92;43.70;99502.03;5013158;28;20510;-77
2022/08/03 05:54:01;;;;;;;9.57;6.10;;;;;;;26.65;43.96;99454.88;5013439;28;20036;-77
2022/08/03 05:56:26;;;;;;;6.90;5.30;;;;;;;26.73;43.91;99467.81;5024824;28;20029;-77
2022/08/03 05:58:52;;;;;;;7.97;6.25;;;;;;;27.14;43.99;99530.56;5032832;28;20021;-77
2022/08/03 06:01:20;;;;;;;8.77;6.30;;;;;;;26.71;44.26;99459.97;5032861;28;20075;-77
2022/08/03 06:03:46;;;;;;;6.53;5.57;;;;;;;27.25;44.24;99531.28;5031511;28;20116;-77
2022/08/03 06:06:11;;;;;;;9.68;6.35;;;;;;;27.27;44.40;99537.22;5032893;28;20483;-77
2022/08/03 06:08:38;;;;;;;7.60;5.55;;;;;;;27.31;44.45;99525.50;5032696;28;20049;-77
2022/08/03 06:11:03;;;;;;;7.10;5.70;;;;;;;27.36;44.24;99527.34;5031044;28;20021;-77
2022/08/03 06:13:29;;;;;;;10.20;8.20;;;;;;;27.47;44.49;99540.50;5032160;28;20094;-77
2022/08/03 06:15:54;;;;;;;7.97;5.50;;;;;;;27.44;44.09;99515.88;5032174;28;20457;-78
2022/08/03 06:18:19;;;;;;;9.90;7.03;;;;;;;27.32;44.19;99491.88;5032162;28;20041;-77
2022/08/03 06:20:45;;;;;;;21.25;9.30;;;;;;;27.66;44.19;99535.19;5032386;28;20034;-78
2022/08/03 06:23:10;;;;;;;9.25;6.65;;;;;;;27.68;44.56;99535.69;5032731;28;20465;-78
2022/08/03 06:25:36;;;;;;;6.97;6.32;;;;;;;27.70;44.25;99541.63;5030853;28;20406;-78
2022/08/03 06:28:02;;;;;;;8.80;7.93;;;;;;;27.72;44.42;99541.34;5031756;28;20029;-78
2022/08/03 06:30:28;;;;;;;9.75;7.28;;;;;;;27.56;44.71;99524.44;5032280;28;20021;-78
2022/08/03 06:32:53;;;;;;;8.25;6.63;;;;;;;27.73;44.80;99541.06;5031138;28;20112;-78
2022/08/03 06:35:19;;;;;;;6.38;5.75;;;;;;;27.75;44.51;99540.75;5030304;28;20096;-78
2022/08/03 06:37:46;;;;;;;5.88;5.30;;;;;;;27.83;44.44;99540.91;5031882;28;20032;-78
2022/08/03 06:40:13;;;;;;;7.30;6.55;;;;;;;27.83;43.93;99516.50;5032198;28;20024;-78
2022/08/03 06:42:39;;;;;;;7.25;6.55;;;;;;;27.97;43.44;99527.44;5032193;28;20033;-78
2022/08/03 06:45:07;;;;;;;12.23;10.95;;;;;;;27.84;43.87;99498.31;5031782;28;20490;-78
2022/08/03 06:47:34;;;;;;;8.48;7.00;;;;;;;28.01;42.85;99514.88;5031770;28;20494;-78
2022/08/03 06:49:59;;;;;;;9.95;7.75;;;;;;;28.09;42.80;99524.28;5031748;28;20460;-78
2022/08/03 06:52:25;;;;;;;9.93;7.40;;;;;;;28.20;42.39;99539.31;5031370;28;20028;-78
2022/08/03 06:54:50;;;;;;;5.90;5.40;;;;;;;27.84;41.82;99471.19;5030076;28;20083;-78
2022/08/03 06:57:17;;;;;;;5.53;4.88;;;;;;;28.25;41.55;99536.59;5031528;28;20049;-77
2022/08/03 06:59:43;;;;;;;4.90;4.50;;;;;;;28.25;41.26;99525.72;5031263;28;20477;-78
2022/08/03 07:02:09;;;;;;;5.15;4.65;;;;;;;28.40;40.67;99539.06;5030182;28;20030;-78
2022/08/03 07:04:34;;;;;;;5.70;4.30;;;;;;;28.26;40.38;99510.25;5031063;28;20033;-77
2022/08/03 07:07:00;;;;;;;5.82;4.40;;;;;;;28.42;39.71;99519.75;5031154;28;20025;-78
2022/08/03 07:09:25;;;;;;;4.47;4.07;;;;;;;28.46;39.36;99537.88;5031455;28;20029;-78
2022/08/03 07:11:51;;;;;;;6.07;4.07;;;;;;;28.31;38.87;99523.75;5030811;28;20120;-78
2022/08/03 07:14:17;;;;;;;5.35;4.47;;;;;;;28.63;38.43;99544.69;5030180;28;20415;-77
2022/08/03 07:16:42;;;;;;;5.18;3.92;;;;;;;28.66;38.02;99535.94;5031587;28;20056;-77
2022/08/03 07:19:07;;;;;;;4.30;3.53;;;;;;;28.83;38.13;99538.09;5031530;28;20022;-78
2022/08/03 07:21:33;;;;;;;4.32;3.95;;;;;;;28.67;37.80;99511.19;5030991;28;20043;-77
2022/08/03 07:23:58;;;;;;;8.88;3.55;;;;;;;28.87;37.40;99539.13;5031453;28;20021;-77
2022/08/03 07:26:24;;;;;;;3.80;3.45;;;;;;;28.52;37.07;99492.44;5031426;28;20379;-77
2022/08/03 07:28:49;;;;;;;6.97;4.25;;;;;;;28.37;36.96;99457.38;5030607;28;20028;-78
2022/08/03 07:31:14;;;;;;;4.40;4.00;;;;;;;28.81;36.95;99530.22;5031094;28;20486;-77
2022/08/03 07:33:40;;;;;;;5.45;3.65;;;;;;;28.37;36.90;99474.47;5031050;28;20057;-78
2022/08/03 07:36:05;;;;;;;4.28;3.88;;;;;;;28.83;36.88;99535.38;5031363;28;20513;-77
2022/08/03 07:38:31;;;;;;;3.90;3.60;;;;;;;28.96;37.06;99546.31;5027552;28;20470;-77
2022/08/03 07:40:56;;;;;;;4.32;3.80;;;;;;;28.79;37.24;99513.41;5028762;28;20056;-78
2022/08/03 07:43:23;;;;;;;7.55;6.68;;;;;;;29.02;36.69;99544.31;5028332;28;20030;-77
2022/08/03 07:45:48;;;;;;;5.32;4.80;;;;;;;29.07;36.82;99542.31;5011245;28;20387;-77
2022/08/03 07:48:14;;;;;;;5.68;4.20;;;;;;;28.84;36.48;99493.53;5024583;28;20029;-78
2022/08/03 07:50:39;;;;;;;4.55;4.15;;;;;;;29.13;36.16;99534.88;5030072;28;20087;-77
2022/08/03 07:53:05;;;;;;;8.13;5.82;;;;;;;29.14;36.70;99532.97;5030977;28;20409;-77
2022/08/03 07:55:30;;;;;;;6.28;5.68;;;;;;;29.19;36.41;99538.31;5028801;28;20083;-77
2022/08/03 07:57:58;;;;;;;7.35;5.38;;;;;;;29.30;36.18;99537.00;5030982;28;20033;-77
2022/08/03 08:00:25;;;;;;;4.43;3.28;;;;;;;29.02;35.16;99489.97;5030178;28;20048;-78
2022/08/03 08:02:50;;;;;;;4.05;3.35;;;;;;;29.31;34.79;99533.19;5031019;28;20032;-77
2022/08/03 08:05:15;;;;;;;4.65;4.25;;;;;;;29.30;34.93;99517.97;5028973;28;20029;-79
2022/08/03 08:07:41;;;;;;;4.65;4.25;;;;;;;29.19;34.92;99494.81;5032353;28;20422;-78
2022/08/03 08:10:08;;;;;;;5.63;5.13;;;;;;;29.57;34.92;99539.75;5034579;28;20028;-78
2022/08/03 08:12:35;;;;;;;5.20;3.28;;;;;;;29.67;34.19;99547.69;5034836;28;20052;-79
2022/08/03 08:15:01;;;;;;;7.32;3.55;;;;;;;29.71;33.78;99534.28;5033235;28;20498;-78
2022/08/03 08:17:26;;;;;;;3.78;2.88;;;;;;;29.88;33.48;99534.50;5029117;28;20607;-79
2022/08/03 08:19:52;;;;;;;4.38;3.97;;;;;;;29.60;33.32;99495.59;5033116;28;20013;-78
2022/08/03 08:22:18;;;;;;;3.78;3.45;;;;;;;30.02;33.19;99534.50;5034827;28;20429;-78
2022/08/03 08:24:44;;;;;;;2.95;2.75;;;;;;;30.11;32.92;99532.66;5016464;28;20032;-78
2022/08/03 08:27:10;;;;;;;9.18;4.43;;;;;;;30.23;32.64;99532.91;5034810;28;20032;-78
2022/08/03 08:29:37;;;;;;;4.75;3.78;;;;;;;30.24;32.64;99509.19;5033511;28;20022;-78
2022/08/03 08:32:03;;;;;;;3.63;3.33;;;;;;;30.21;32.66;99498.91;5034373;28;20025;-78
2022/08/03 08:34:28;;;;;;;6.10;3.75;;;;;;;30.44;32.52;99514.16;5035331;28;20080;-78
2022/08/03 08:36:54;;;;;;;5.05;3.72;;;;;;;30.57;32.39;99526.13;5032941;28;20502;-78
2022/08/03 08:39:19;;;;;;;6.72;5.05;;;;;;;30.70;32.38;99529.94;5033936;28;20553;-78
2022/08/03 08:41:45;;;;;;;9.27;4.68;;;;;;;30.76;32.12;99532.22;5033911;28;20021;-78
2022/08/03 08:44:10;;;;;;;8.50;6.35;;;;;;;30.81;32.13;99521.16;5033676;28;20034;-78
2022/08/03 08:46:38;;;;;;;4.55;4.15;;;;;;;31.02;32.08;99520.63;5036303;28;20022;-78
2022/08/03 08:49:08;;;;;;;5.93;4.80;;;;;;;30.99;32.04;99497.53;5035660;28;21583;-78
2022/08/03 08:51:36;;;;;;;5.95;3.88;;;;;;;31.22;32.18;99529.13;5034265;28;20026;-78
2022/08/03 08:54:06;;;;;;;4.97;4.57;;;;;;;31.11;31.83;99491.47;5033067;28;21364;-79
2022/08/03 08:56:32;;;;;;;5.57;3.80;;;;;;;31.50;32.01;99534.34;5034268;28;20025;-78
2022/08/03 08:59:00;;;;;;;4.50;3.55;;;;;;;31.59;31.21;99525.06;5034263;28;20030;-78
2022/08/03 09:01:26;;;;;;;3.55;3.22;;;;;;;31.50;30.99;99510.59;5034457;28;20097;-78
2022/08/03 09:03:53;;;;;;;3.40;3.10;;;;;;;31.70;30.86;99519.34;5034306;28;20044;-78
2022/08/03 09:06:19;;;;;;;5.15;4.35;;;;;;;31.74;30.55;99504.72;5033984;28;20075;-78
2022/08/03 09:08:45;;;;;;;4.25;3.45;;;;;;;31.56;30.65;99465.66;5033667;28;20028;-78
2022/08/03 09:11:11;;;;;;;5.90;3.25;;;;;;;31.79;30.33;99490.13;5032466;28;20021;-75
2022/08/03 09:13:36;;;;;;;5.68;3.00;;;;;;;31.89;30.36;99493.34;5032203;28;20029;-75
2022/08/03 09:16:15;;;;;;;3.10;2.63;;;;;;;32.19;29.94;99515.38;5032013;28;20021;-76
2022/08/03 09:18:43;;;;;;;5.05;2.97;;;;;;;32.00;30.01;99496.59;5023872;28;20021;-75
2022/08/03 09:21:14;;;;;;;5.53;3.67;;;;;;;32.11;29.88;99508.78;5032693;28;20028;-75
2022/08/03 09:23:50;;;;;;;4.38;3.55;;;;;;;32.12;29.62;99469.44;5032299;28;20021;-75
2022/08/03 09:26:27;;;;;;;6.32;2.72;;;;;;;32.62;29.35;99498.94;5034169;28;20104;-75
2022/08/03 09:29:00;;;;;;;7.50;3.70;;;;;;;32.75;28.94;99503.44;5033465;28;20022;-75
2022/08/03 09:31:37;;;;;;;4.45;3.20;;;;;;;32.69;29.03;99506.66;5031704;28;20108;-76
2022/08/03 09:34:07;;;;;;;6.97;2.55;;;;;;;32.74;29.05;99503.78;5029180;28;20029;-75
2022/08/03 09:36:52;;;;;;;4.00;2.20;;;;;;;32.50;28.75;99471.47;5033333;28;20032;-76
2022/08/03 09:39:21;;;;;;;7.38;2.65;;;;;;;32.49;29.07;99499.94;5032916;28;20033;-76
2022/08/03 09:42:16;;;;;;;2.50;2.30;;;;;;;32.79;28.79;99496.22;5033472;28;20021;-76
2022/08/03 09:44:46;;;;;;;4.47;3.47;;;;;;;33.19;28.19;99493.19;5033015;28;20032;-75
2022/08/03 09:47:13;;;;;;;4.47;2.83;;;;;;;33.43;27.93;99467.97;5032377;28;20029;-75
2022/08/03 09:49:40;;;;;;;6.15;3.20;;;;;;;33.67;27.19;99461.88;5031210;28;20022;-75
2022/08/03 09:52:17;;;;;;;5.90;2.90;;;;;;;33.87;26.44;99477.53;5033503;28;20112;-76
2022/08/03 09:54:43;;;;;;;6.03;3.10;;;;;;;33.84;26.66;99459.03;5027765;28;20053;-76
2022/08/03 09:57:21;;;;;;;3.25;2.67;;;;;;;34.22;25.97;99488.22;5028443;28;20112;-76
2022/08/03 09:59:46;;;;;;;3.50;2.67;;;;;;;34.31;26.79;99470.56;5031459;28;20099;-76
2022/08/03 10:02:25;;;;;;;3.20;2.80;;;;;;;34.60;26.33;99472.38;5031619;28;20494;-75
2022/08/03 10:04:52;;;;;;;2.75;2.17;;;;;;;34.62;25.57;99464.63;5031189;28;20025;-76
2022/08/03 10:07:22;;;;;;;3.78;2.75;;;;;;;34.55;25.83;99471.78;5031382;28;20108;-75
2022/08/03 10:10:01;;;;;;;3.33;3.03;;;;;;;34.18;26.27;99432.44;5031207;28;20057;-74
2022/08/03 10:12:27;;;;;;;4.35;3.45;;;;;;;34.14;26.39;99472.63;5031102;28;20048;-75
2022/08/03 10:14:54;;;;;;;2.55;2.33;;;;;;;33.31;27.16;99367.41;5030861;28;20030;-75
2022/08/03 10:17:20;;;;;;;3.08;2.22;;;;;;;34.26;26.33;99467.22;5023728;28;20430;-74
2022/08/03 10:19:46;;;;;;;4.88;2.38;;;;;;;34.38;25.90;99457.13;5027091;28;20063;-74
2022/08/03 10:22:17;;;;;;;4.90;2.58;;;;;;;34.04;26.62;99428.06;5032453;28;20026;-74
2022/08/03 10:24:52;;;;;;;2.83;2.15;;;;;;;33.97;26.92;99468.91;5032677;28;20017;-74
2022/08/03 10:27:19;;;;;;;4.47;3.75;;;;;;;33.66;27.29;99457.53;5031089;28;20426;-75
2022/08/03 10:29:50;;;;;;;3.25;2.65;;;;;;;33.12;27.33;99429.97;5030888;28;20108;-75
2022/08/03 10:32:34;;;;;;;3.70;2.75;;;;;;;33.08;26.93;99456.38;5031218;28;20498;-75
2022/08/03 10:35:06;;;;;;;3.05;2.60;;;;;;;33.38;27.10;99458.00;5031069;28;20025;-75
2022/08/03 10:37:39;;;;;;;3.30;3.00;;;;;;;33.60;26.81;99453.38;5030936;28;20087;-75
2022/08/03 10:40:07;;;;;;;3.75;3.22;;;;;;;33.83;27.08;99443.72;5030295;28;20036;-75
2022/08/03 10:42:34;;;;;;;2.42;2.20;;;;;;;33.88;26.60;99416.13;5031339;28;20021;-75
2022/08/03 10:45:05;;;;;;;3.33;2.90;;;;;;;32.52;26.38;99133.84;5029393;28;20036;-75
2022/08/03 10:47:32;;;;;;;4.25;3.15;;;;;;;34.23;26.12;99408.41;5032137;28;20053;-77
2022/08/03 10:49:58;;;;;;;5.32;3.00;;;;;;;34.50;25.83;99439.91;5031602;28;20513;-75
2022/08/03 10:52:24;;;;;;;4.90;4.35;;;;;;;34.45;25.78;99401.75;5030356;28;20026;-75
2022/08/03 10:57:53;;;;;;;4.38;3.65;;;;;;;35.08;25.96;99434.41;5031521;28;20040;-75
2022/08/03 11:00:21;;;;;;;5.65;5.15;;;;;;;35.45;25.39;99432.44;5025715;28;20038;-75
2022/08/03 11:03:02;;;;;;;4.05;2.80;;;;;;;36.02;24.16;99426.72;5030674;28;20021;-77
2022/08/03 11:05:28;;;;;;;;;;;;;;;36.07;24.22;99426.47;5012811;28;20021;-75
2022/08/03 11:08:20;;;;;;;4.00;3.28;;;;;;;36.50;24.10;99431.22;5011918;28;19909;-75
2022/08/03 11:10:46;;;;;;;3.15;2.85;;;;;;;36.43;23.94;99427.47;5012005;28;20022;-75
2022/08/03 11:13:17;;;;;;;6.63;4.65;;;;;;;36.39;24.02;99430.09;5010747;28;20076;-75
2022/08/03 11:15:45;;;;;;;2.75;2.55;;;;;;;36.13;23.69;99427.00;5011835;28;20494;-75
2022/08/03 11:18:12;;;;;;;3.22;2.92;;;;;;;36.21;23.66;99412.31;5029378;28;20049;-76
2022/08/03 11:20:51;;;;;;;2.53;2.28;;;;;;;35.39;23.96;99355.00;5031548;28;20022;-76
2022/08/03 11:23:19;;;;;;;3.88;3.22;;;;;;;35.49;24.17;99422.38;5030230;28;20025;-75
2022/08/03 11:26:21;;;;;;;5.95;5.45;;;;;;;35.02;24.81;99376.22;5029664;28;20040;-75
2022/08/03 11:28:48;;;;;;;4.63;4.22;;;;;;;35.02;24.78;99425.59;5030713;28;20021;-75
2022/08/03 11:31:23;;;;;;;9.38;8.57;;;;;;;34.77;25.81;99416.53;5029002;28;20457;-76
2022/08/03 11:34:09;;;;;;;4.22;3.85;;;;;;;34.53;25.14;99402.78;5029980;28;20029;-77
2022/08/03 11:37:12;;;;;;;6.03;5.25;;;;;;;34.17;25.69;99403.44;5030995;28;20053;-75
2022/08/03 11:39:45;;;;;;;3.47;3.17;;;;;;;33.82;26.30;99379.13;5030187;28;20096;-75
2022/08/03 11:42:23;;;;;;;2.97;2.63;;;;;;;34.41;25.53;99395.34;5030070;28;20029;-75
2022/08/03 11:44:53;;;;;;;3.88;3.30;;;;;;;34.58;25.07;99326.59;5026839;28;20036;-76
2022/08/03 11:47:19;;;;;;;3.90;2.90;;;;;;;35.51;24.32;99365.16;5030405;28;20036;-75